Time;durP1;ratioP1;P1;durP2;ratioP2;P2;SDS_P1;SDS_P2;PMS_P1;PMS_P2;Temp;Humidity;BMP_temperature;BMP_pressure;BME280_temperature;BME280_humidity;BME280_pressure;Samples;Min_cycle;Max_cycle;Signal;HPM_P1;HPM_P2
2021/10/23 00:01:53;;;;;;;0.13;0.13;;;;;;;5.05;100.00;101025.97;5072884;28;20188;-74
2021/10/23 00:04:18;;;;;;;0.20;0.20;;;;;;;5.01;100.00;101022.16;5072772;28;20169;-74
2021/10/23 00:06:44;;;;;;;0.80;0.80;;;;;;;5.01;100.00;101030.28;5090636;28;20274;-74
2021/10/23 00:09:10;;;;;;;0.20;0.10;;;;;;;5.06;100.00;101027.59;5090942;28;20231;-74
2021/10/23 00:11:35;;;;;;;1.63;1.57;;;;;;;5.04;100.00;101032.44;5072817;28;20181;-73
2021/10/23 00:14:00;;;;;;;3.43;1.50;;;;;;;5.04;100.00;101043.28;5072889;28;20268;-74
2021/10/23 00:16:26;;;;;;;2.13;1.93;;;;;;;5.03;100.00;101050.59;5072685;28;20189;-74
2021/10/23 00:18:51;;;;;;;0.73;0.20;;;;;;;5.03;100.00;101063.31;5072773;28;20201;-74
2021/10/23 00:21:16;;;;;;;1.80;0.50;;;;;;;5.03;100.00;101055.19;5091124;28;20427;-74
2021/10/23 00:23:42;;;;;;;1.97;1.40;;;;;;;5.04;100.00;101065.75;5090624;28;20189;-74
2021/10/23 00:26:08;;;;;;;13.20;1.80;;;;;;;5.05;100.00;101064.69;5072705;28;20180;-74
2021/10/23 00:28:33;;;;;;;0.30;0.30;;;;;;;5.05;100.00;101064.69;5090786;28;20591;-74
2021/10/23 00:30:58;;;;;;;26.37;0.90;;;;;;;5.04;100.00;101067.66;5090580;28;20177;-74
2021/10/23 00:33:24;;;;;;;0.10;0.10;;;;;;;5.02;100.00;101067.09;5090463;28;20178;-74
2021/10/23 00:35:50;;;;;;;1.60;1.50;;;;;;;5.02;100.00;101040.84;5090334;28;20223;-74
2021/10/23 00:38:15;;;;;;;2.53;2.33;;;;;;;4.99;100.00;101060.31;5090535;28;20173;-74
2021/10/23 00:40:40;;;;;;;0.73;0.50;;;;;;;4.95;100.00;101056.50;5072431;28;20246;-74
2021/10/23 00:43:06;;;;;;;2.00;1.90;;;;;;;4.96;100.00;101038.38;5090650;28;20178;-74
2021/10/23 00:45:31;;;;;;;0.23;0.23;;;;;;;4.96;100.00;101054.63;5090454;28;20212;-74
2021/10/23 00:47:57;;;;;;;0.50;0.50;;;;;;;4.97;100.00;101051.66;5090940;28;20178;-74
2021/10/23 00:50:23;;;;;;;3.60;0.83;;;;;;;4.96;100.00;101063.56;5072374;28;20282;-74
2021/10/23 00:52:51;;;;;;;4.57;1.90;;;;;;;4.98;100.00;101064.09;5090117;28;20174;-74
2021/10/23 00:55:19;;;;;;;0.43;0.40;;;;;;;5.03;100.00;101068.72;5090230;28;20563;-74
2021/10/23 00:57:45;;;;;;;0.63;0.63;;;;;;;5.02;100.00;101072.53;5090620;28;20551;-74
2021/10/23 01:00:10;;;;;;;0.30;0.30;;;;;;;5.02;100.00;101073.34;5090432;28;20193;-74
2021/10/23 01:02:36;;;;;;;0.43;0.43;;;;;;;5.01;100.00;101079.00;5090280;28;20228;-74
2021/10/23 01:05:03;;;;;;;1.20;1.13;;;;;;;5.05;100.00;101083.66;5090470;28;20693;-74
2021/10/23 01:07:29;;;;;;;4.47;0.77;;;;;;;5.08;100.00;101082.34;5072307;28;20189;-73
2021/10/23 01:09:54;;;;;;;3.57;0.80;;;;;;;5.07;100.00;101096.94;5072337;28;20170;-74
2021/10/23 01:12:20;;;;;;;3.13;0.30;;;;;;;5.11;100.00;101098.06;5076033;28;20177;-74
2021/10/23 01:14:46;;;;;;;0.30;0.30;;;;;;;5.12;100.00;101093.47;5075807;28;20315;-74
2021/10/23 01:17:12;;;;;;;0.27;0.27;;;;;;;5.08;100.00;101093.16;5094069;28;20219;-74
2021/10/23 01:19:38;;;;;;;0.30;0.30;;;;;;;5.06;100.00;101087.16;5075798;28;20209;-74
2021/10/23 01:22:04;;;;;;;1.77;1.07;;;;;;;5.03;100.00;101093.91;5093889;28;20213;-74
2021/10/23 01:24:30;;;;;;;1.47;1.37;;;;;;;5.08;100.00;101104.00;5075513;28;20174;-74
2021/10/23 01:26:56;;;;;;;0.13;0.13;;;;;;;5.04;100.00;101100.97;5093785;28;20531;-74
2021/10/23 01:29:22;;;;;;;1.27;1.17;;;;;;;5.02;100.00;101103.13;5075793;28;20178;-74
2021/10/23 01:31:51;;;;;;;0.33;0.00;;;;;;;4.99;100.00;101097.41;5094212;28;20170;-74
2021/10/23 01:34:16;;;;;;;11.60;2.73;;;;;;;4.98;100.00;101082.25;5075476;28;20216;-74
2021/10/23 01:36:53;;;;;;;0.20;0.20;;;;;;;4.99;100.00;101094.72;5093788;28;20212;-74
2021/10/23 01:39:19;;;;;;;2.70;0.30;;;;;;;4.99;100.00;101081.16;5093684;28;20197;-74
2021/10/23 01:41:45;;;;;;;8.83;0.97;;;;;;;5.01;100.00;101097.97;5093903;28;20178;-74
2021/10/23 01:44:13;;;;;;;1.10;0.23;;;;;;;4.99;100.00;101092.81;5075432;28;20564;-74
2021/10/23 01:46:40;;;;;;;0.93;0.40;;;;;;;4.97;100.00;101103.09;5093462;28;20201;-74
2021/10/23 01:49:06;;;;;;;0.67;0.67;;;;;;;5.00;100.00;101099.84;5093598;28;20174;-73
2021/10/23 01:51:33;;;;;;;0.27;0.27;;;;;;;4.99;100.00;101103.66;5093473;28;20169;-73
2021/10/23 01:54:03;;;;;;;0.57;0.57;;;;;;;5.01;100.00;101112.31;5093321;28;20198;-73
2021/10/23 01:56:29;;;;;;;0.43;0.43;;;;;;;5.00;100.00;101118.00;5075003;28;20219;-74
2021/10/23 01:58:54;;;;;;;0.30;0.30;;;;;;;5.00;100.00;101118.00;5078721;28;20206;-73
2021/10/23 02:01:19;;;;;;;0.40;0.23;;;;;;;5.02;100.00;101135.63;5090193;28;20241;-74
2021/10/23 02:03:45;;;;;;;2.30;1.07;;;;;;;5.03;100.00;101147.25;5091762;28;20216;-73
2021/10/23 02:06:10;;;;;;;8.23;0.93;;;;;;;5.04;100.00;101138.88;5093158;28;20189;-74
2021/10/23 02:08:36;;;;;;;0.60;0.60;;;;;;;5.07;100.00;101143.00;5093024;28;20254;-74
2021/10/23 02:11:02;;;;;;;4.13;1.13;;;;;;;5.07;100.00;101156.53;5093174;28;20174;-74
2021/10/23 02:13:27;;;;;;;0.23;0.13;;;;;;;5.05;100.00;101154.06;5074910;28;20189;-74
2021/10/23 02:15:53;;;;;;;1.80;1.03;;;;;;;5.00;100.00;101164.03;5074626;28;20181;-74
2021/10/23 02:18:18;;;;;;;7.10;0.63;;;;;;;4.97;100.00;101159.13;5074751;28;20182;-74
2021/10/23 02:20:43;;;;;;;0.00;0.00;;;;;;;4.92;100.00;101159.91;5074612;28;20321;-74
2021/10/23 02:23:09;;;;;;;0.67;0.17;;;;;;;4.90;100.00;101163.94;5074283;28;20203;-74
2021/10/23 02:25:34;;;;;;;0.03;0.03;;;;;;;4.88;100.00;101164.19;5092803;28;20209;-74
2021/10/23 02:27:59;;;;;;;0.97;0.97;;;;;;;4.87;100.00;101164.44;5092871;28;20617;-74
2021/10/23 02:30:25;;;;;;;0.97;0.47;;;;;;;4.83;100.00;101171.44;5092702;28;20571;-74
2021/10/23 02:32:52;;;;;;;0.53;0.20;;;;;;;4.77;100.00;101165.16;5092862;28;20589;-74
2021/10/23 02:35:18;;;;;;;1.80;0.63;;;;;;;4.70;100.00;101168.06;5094419;28;20170;-74
2021/10/23 02:37:43;;;;;;;1.87;0.50;;;;;;;4.71;100.00;101168.88;5074614;28;20178;-75
2021/10/23 02:40:09;;;;;;;1.17;0.63;;;;;;;4.68;100.00;101164.81;5092572;28;20705;-75
2021/10/23 02:42:34;;;;;;;0.67;0.63;;;;;;;4.65;100.00;101176.16;5092705;28;20228;-74
2021/10/23 02:45:00;;;;;;;0.37;0.27;;;;;;;4.66;100.00;101191.31;5092975;28;20185;-74
2021/10/23 02:47:25;;;;;;;3.60;1.03;;;;;;;4.63;100.00;101197.22;5092683;28;20177;-74
2021/10/23 02:49:51;;;;;;;0.23;0.23;;;;;;;4.63;100.00;101178.28;5092559;28;20232;-74
2021/10/23 02:52:16;;;;;;;0.30;0.30;;;;;;;4.62;100.00;101203.69;5092466;28;20170;-74
2021/10/23 02:54:41;;;;;;;0.30;0.20;;;;;;;4.59;100.00;101214.22;5092395;28;20622;-74
2021/10/23 02:57:07;;;;;;;0.53;0.50;;;;;;;4.56;100.00;101204.72;5092141;28;20184;-74
2021/10/23 02:59:32;;;;;;;0.10;0.10;;;;;;;4.60;100.00;101208.53;5091863;28;20226;-75
2021/10/23 03:01:57;;;;;;;0.20;0.20;;;;;;;4.59;100.00;101209.63;5092198;28;20253;-74
2021/10/23 03:04:23;;;;;;;23.57;1.03;;;;;;;4.61;100.00;101210.16;5073786;28;20177;-74
2021/10/23 03:06:48;;;;;;;2.03;0.93;;;;;;;4.60;100.00;101216.66;5073853;28;20255;-74
2021/10/23 03:09:14;;;;;;;0.77;0.37;;;;;;;4.62;100.00;101219.94;5092359;28;20644;-74
2021/10/23 03:11:40;;;;;;;0.30;0.20;;;;;;;4.62;100.00;101224.53;5073841;28;20174;-74
2021/10/23 03:14:06;;;;;;;0.53;0.53;;;;;;;4.58;100.00;101220.69;5092129;28;20185;-74
2021/10/23 03:16:31;;;;;;;0.40;0.40;;;;;;;4.59;100.00;101206.91;5073773;28;20192;-74
2021/10/23 03:18:57;;;;;;;0.23;0.17;;;;;;;4.62;100.00;101222.63;5091797;28;20194;-74
2021/10/23 03:21:22;;;;;;;0.33;0.30;;;;;;;4.64;100.00;101227.81;5073160;28;20174;-74
2021/10/23 03:23:48;;;;;;;0.30;0.30;;;;;;;4.68;100.00;101202.69;5073247;28;20166;-74
2021/10/23 03:26:14;;;;;;;2.03;0.40;;;;;;;4.64;100.00;101217.00;5091764;28;20268;-74
2021/10/23 03:28:39;;;;;;;0.40;0.40;;;;;;;4.65;100.00;101226.75;5091702;28;20272;-74
2021/10/23 03:31:04;;;;;;;1.07;0.93;;;;;;;4.61;100.00;101226.41;5091432;28;20311;-74
2021/10/23 03:33:30;;;;;;;0.43;0.43;;;;;;;4.65;100.00;101224.84;5090674;28;20251;-74
2021/10/23 03:35:55;;;;;;;0.60;0.60;;;;;;;4.64;100.00;101225.94;5090447;28;20165;-74
2021/10/23 03:38:20;;;;;;;0.10;0.10;;;;;;;4.67;100.00;101232.72;5090962;28;20679;-74
2021/10/23 03:40:46;;;;;;;0.00;0.00;;;;;;;4.72;100.00;101239.00;5072842;28;20174;-74
2021/10/23 03:43:12;;;;;;;0.43;0.30;;;;;;;4.69;100.00;101233.28;5090988;28;20184;-74
2021/10/23 03:45:37;;;;;;;3.43;1.07;;;;;;;4.69;100.00;101241.41;5090819;28;20645;-74
2021/10/23 03:48:03;;;;;;;0.20;0.20;;;;;;;4.65;100.00;101243.81;5072748;28;20178;-74
2021/10/23 03:50:28;;;;;;;0.10;0.10;;;;;;;4.70;100.00;101233.03;5090821;28;20261;-74
2021/10/23 03:52:55;;;;;;;0.10;0.10;;;;;;;4.66;100.00;101231.09;5091055;28;20188;-74
2021/10/23 03:55:20;;;;;;;0.10;0.10;;;;;;;4.65;100.00;101229.44;5091117;28;20177;-74
2021/10/23 03:57:47;;;;;;;0.63;0.63;;;;;;;4.64;100.00;101227.81;5073291;28;20178;-74
2021/10/23 04:00:13;;;;;;;1.13;1.03;;;;;;;4.66;100.00;101231.91;5091093;28;20657;-74
2021/10/23 04:02:39;;;;;;;2.33;1.43;;;;;;;4.72;100.00;101239.00;5091007;28;20178;-74
2021/10/23 04:05:05;;;;;;;0.27;0.23;;;;;;;4.75;100.00;101240.38;5090936;28;20182;-74
2021/10/23 04:07:30;;;;;;;0.97;0.57;;;;;;;4.74;100.00;101236.84;5090901;28;20185;-74
2021/10/23 04:09:56;;;;;;;0.37;0.30;;;;;;;4.78;100.00;101242.59;5072558;28;20622;-74
2021/10/23 04:12:21;;;;;;;0.47;0.47;;;;;;;4.85;100.00;101232.38;5090797;28;20644;-74
2021/10/23 04:14:46;;;;;;;0.40;0.20;;;;;;;4.84;100.00;101233.47;5090731;28;20614;-74
2021/10/23 04:17:12;;;;;;;6.93;0.63;;;;;;;4.84;100.00;101235.34;5090925;28;20638;-74
2021/10/23 04:19:39;;;;;;;0.83;0.83;;;;;;;4.86;100.00;101235.91;5090540;28;20242;-74
2021/10/23 04:22:04;;;;;;;6.03;0.87;;;;;;;4.86;100.00;101244.84;5091160;28;20597;-74
2021/10/23 04:24:29;;;;;;;1.07;0.87;;;;;;;4.89;100.00;101230.78;5090690;28;20253;-74
2021/10/23 04:26:55;;;;;;;0.53;0.53;;;;;;;4.91;100.00;101223.22;5090875;28;20177;-74
2021/10/23 04:29:21;;;;;;;0.40;0.40;;;;;;;4.96;100.00;101228.72;5090859;28;20649;-74
2021/10/23 04:31:47;;;;;;;1.27;1.10;;;;;;;5.00;100.00;101239.84;5072578;28;20166;-74
2021/10/23 04:34:13;;;;;;;0.30;0.30;;;;;;;4.98;100.00;101228.47;5090422;28;20197;-74
2021/10/23 04:36:38;;;;;;;0.37;0.37;;;;;;;5.01;100.00;101249.59;5072443;28;20188;-74
2021/10/23 04:39:04;;;;;;;1.17;0.20;;;;;;;4.98;100.00;101242.81;5072490;28;20205;-74
2021/10/23 04:41:29;;;;;;;0.43;0.43;;;;;;;4.98;100.00;101250.94;5090640;28;20173;-74
2021/10/23 04:43:54;;;;;;;0.10;0.10;;;;;;;4.95;100.00;101258.75;5072257;28;20625;-74
2021/10/23 04:46:20;;;;;;;9.43;4.33;;;;;;;4.91;100.00;101257.63;5093131;28;20177;-73
2021/10/23 04:48:45;;;;;;;8.13;0.77;;;;;;;4.89;100.00;101252.44;5095221;28;20500;-74
2021/10/23 04:51:11;;;;;;;1.70;0.70;;;;;;;4.85;100.00;101254.03;5094605;28;20684;-75
2021/10/23 04:53:36;;;;;;;2.20;0.60;;;;;;;4.84;100.00;101259.72;5094495;28;20177;-74
2021/10/23 04:56:01;;;;;;;0.07;0.07;;;;;;;4.78;100.00;101251.53;5094557;28;20173;-74
2021/10/23 04:58:27;;;;;;;0.67;0.67;;;;;;;4.74;100.00;101255.81;5094323;28;20220;-74
2021/10/23 05:00:52;;;;;;;0.20;0.20;;;;;;;4.81;100.00;101262.94;5076045;28;20166;-75
2021/10/23 05:03:18;;;;;;;0.27;0.23;;;;;;;4.77;100.00;101254.47;5094743;28;20177;-74
2021/10/23 05:05:43;;;;;;;0.30;0.30;;;;;;;4.71;100.00;101255.50;5075949;28;20177;-74
2021/10/23 05:08:09;;;;;;;1.10;1.00;;;;;;;4.72;100.00;101255.25;5094449;28;20245;-74
2021/10/23 05:10:34;;;;;;;0.20;0.20;;;;;;;4.72;100.00;101257.13;5094339;28;20256;-74
2021/10/23 05:12:59;;;;;;;0.97;0.20;;;;;;;4.70;100.00;101259.28;5094301;28;20174;-74
2021/10/23 05:15:25;;;;;;;0.30;0.30;;;;;;;4.66;100.00;101261.69;5094049;28;20202;-74
2021/10/23 05:17:50;;;;;;;0.60;0.50;;;;;;;4.65;100.00;101267.34;5076243;28;20170;-74
2021/10/23 05:20:15;;;;;;;0.43;0.43;;;;;;;4.59;100.00;101268.31;5075529;28;20202;-74
2021/10/23 05:22:41;;;;;;;2.10;2.00;;;;;;;4.59;100.00;101274.56;5094062;28;20177;-74
2021/10/23 05:25:07;;;;;;;0.20;0.10;;;;;;;4.62;100.00;101262.41;5093543;28;20257;-74
2021/10/23 05:27:32;;;;;;;2.63;0.30;;;;;;;4.61;100.00;101264.28;5093532;28;20181;-74
2021/10/23 05:29:59;;;;;;;0.13;0.13;;;;;;;4.63;100.00;101275.72;5093356;28;20178;-74
2021/10/23 05:32:24;;;;;;;1.90;1.40;;;;;;;4.64;100.00;101265.72;5075179;28;20178;-74
2021/10/23 05:34:49;;;;;;;1.83;1.83;;;;;;;4.67;100.00;101265.19;5093158;28;20226;-75
2021/10/23 05:37:16;;;;;;;0.23;0.23;;;;;;;4.74;100.00;101276.63;5092894;28;20180;-73
2021/10/23 05:39:41;;;;;;;0.50;0.50;;;;;;;4.74;100.00;101277.47;5074979;28;20681;-74
2021/10/23 05:42:07;;;;;;;0.10;0.10;;;;;;;4.76;100.00;101288.84;5093006;28;20434;-74
2021/10/23 05:44:32;;;;;;;0.13;0.13;;;;;;;4.75;100.00;101283.69;5092605;28;20181;-74
2021/10/23 05:46:58;;;;;;;2.10;1.60;;;;;;;4.76;100.00;101288.84;5093078;28;20177;-74
2021/10/23 05:49:23;;;;;;;0.13;0.13;;;;;;;4.79;100.00;101309.22;5092966;28;20719;-74
2021/10/23 05:51:50;;;;;;;7.73;1.07;;;;;;;4.76;100.00;101302.38;5093140;28;20169;-74
2021/10/23 05:54:16;;;;;;;0.80;0.57;;;;;;;4.80;100.00;101305.44;5092789;28;20216;-74
2021/10/23 05:56:41;;;;;;;1.13;1.03;;;;;;;4.81;100.00;101311.66;5092044;28;20718;-74
2021/10/23 05:59:13;;;;;;;0.47;0.47;;;;;;;4.80;100.00;101304.59;5092344;28;20212;-74
2021/10/23 06:01:42;;;;;;;4.70;0.33;;;;;;;4.80;100.00;101296.50;5092527;28;20166;-74
2021/10/23 06:04:07;;;;;;;2.50;1.17;;;;;;;4.81;100.00;101296.22;5074280;28;20174;-74
2021/10/23 06:06:33;;;;;;;1.53;0.63;;;;;;;4.82;100.00;101302.47;5074437;28;20193;-74
2021/10/23 06:09:00;;;;;;;0.60;0.30;;;;;;;4.80;100.00;101307.31;5092331;28;20174;-74
2021/10/23 06:11:25;;;;;;;0.97;0.43;;;;;;;4.76;100.00;101318.63;5092341;28;20170;-74
2021/10/23 06:13:52;;;;;;;0.40;0.27;;;;;;;4.75;100.00;101317.00;5092402;28;20173;-74
2021/10/23 06:16:18;;;;;;;1.13;1.13;;;;;;;4.75;100.00;101330.53;5093219;28;20238;-74
2021/10/23 06:18:43;;;;;;;0.83;0.37;;;;;;;4.78;100.00;101323.81;5092647;28;20634;-73
2021/10/23 06:21:08;;;;;;;0.77;0.77;;;;;;;4.82;100.00;101343.06;5071063;28;20182;-74
2021/10/23 06:23:34;;;;;;;0.00;0.00;;;;;;;4.84;100.00;101335.50;5078467;28;20178;-74
2021/10/23 06:26:00;;;;;;;0.30;0.30;;;;;;;4.86;100.00;101342.31;5082486;28;20174;-74
2021/10/23 06:28:26;;;;;;;0.60;0.43;;;;;;;4.90;100.00;101348.84;5092449;28;20266;-74
2021/10/23 06:30:51;;;;;;;1.70;0.53;;;;;;;4.94;100.00;101351.91;5074077;28;20221;-74
2021/10/23 06:33:20;;;;;;;2.00;0.60;;;;;;;4.98;100.00;101363.84;5074166;28;20177;-75
2021/10/23 06:35:46;;;;;;;4.03;1.03;;;;;;;5.03;100.00;101358.50;5073478;28;20182;-75
2021/10/23 06:38:12;;;;;;;0.87;0.80;;;;;;;5.07;100.00;101363.19;5087436;28;20189;-75
2021/10/23 06:40:37;;;;;;;0.27;0.27;;;;;;;5.10;100.00;101375.38;5091965;28;20208;-75
2021/10/23 06:43:02;;;;;;;0.20;0.20;;;;;;;5.13;100.00;101371.34;5092025;28;20182;-76
2021/10/23 06:45:29;;;;;;;1.27;0.37;;;;;;;5.15;100.00;101380.03;5091644;28;20182;-76
2021/10/23 06:47:56;;;;;;;0.47;0.30;;;;;;;5.16;100.00;101373.56;5090698;28;20205;-77
2021/10/23 06:50:22;;;;;;;0.47;0.30;;;;;;;5.17;100.00;101380.59;5091794;28;20178;-77
2021/10/23 06:52:47;;;;;;;8.43;2.30;;;;;;;5.19;100.00;101379.28;5091977;28;20200;-78
2021/10/23 06:55:13;;;;;;;0.00;0.00;;;;;;;5.25;100.00;101386.41;5091882;28;20173;-79
2021/10/23 06:57:38;;;;;;;0.77;0.77;;;;;;;5.31;100.00;101401.63;5091859;28;20493;-77
2021/10/23 07:00:06;;;;;;;0.10;0.10;;;;;;;5.38;100.00;101394.16;5091649;28;20212;-77
2021/10/23 07:02:37;;;;;;;0.17;0.17;;;;;;;5.45;100.00;101393.94;5082156;28;20178;-78
2021/10/23 07:05:04;;;;;;;0.63;0.63;;;;;;;5.50;100.00;101402.16;5091508;28;20201;-79
2021/10/23 07:07:29;;;;;;;0.30;0.10;;;;;;;5.54;100.00;101389.72;5091593;28;20649;-77
2021/10/23 07:09:54;;;;;;;0.27;0.27;;;;;;;5.57;100.00;101418.22;5090284;28;20205;-76
2021/10/23 07:12:20;;;;;;;0.27;0.23;;;;;;;5.60;100.00;101413.09;5091596;28;20597;-77
2021/10/23 07:14:45;;;;;;;9.73;0.70;;;;;;;5.62;100.00;101435.34;5091324;28;20633;-78
2021/10/23 07:17:10;;;;;;;0.20;0.10;;;;;;;5.63;100.00;101428.84;5091342;28;20184;-78
2021/10/23 07:19:36;;;;;;;0.40;0.30;;;;;;;5.68;100.00;101433.53;5090010;28;20210;-78
2021/10/23 07:22:01;;;;;;;0.57;0.50;;;;;;;5.73;100.00;101438.97;5091237;28;20269;-78
2021/10/23 07:24:26;;;;;;;0.00;0.00;;;;;;;5.74;100.00;101442.50;5081480;28;20243;-76
2021/10/23 07:26:52;;;;;;;1.83;1.03;;;;;;;5.76;100.00;101454.75;5091249;28;20641;-78
2021/10/23 07:29:18;;;;;;;0.30;0.30;;;;;;;5.78;100.00;101452.59;5091183;28;20547;-78
2021/10/23 07:31:43;;;;;;;0.93;0.70;;;;;;;5.81;100.00;101460.25;5091122;28;20177;-77
2021/10/23 07:34:08;;;;;;;0.60;0.60;;;;;;;5.85;100.00;101449.69;5089565;28;20201;-77
2021/10/23 07:36:34;;;;;;;0.77;0.30;;;;;;;5.87;100.00;101459.22;5091190;28;20227;-78
2021/10/23 07:38:59;;;;;;;0.33;0.33;;;;;;;5.93;100.00;101462.81;5090967;28;20548;-75
2021/10/23 07:41:24;;;;;;;1.60;1.50;;;;;;;5.97;100.00;101459.34;5090292;28;20178;-76
2021/10/23 07:43:50;;;;;;;0.13;0.13;;;;;;;5.99;100.00;101467.22;5090526;28;20181;-75
2021/10/23 07:46:15;;;;;;;0.10;0.10;;;;;;;6.07;100.00;101474.91;5072535;28;20205;-75
2021/10/23 07:48:42;;;;;;;0.60;0.40;;;;;;;6.17;100.00;101485.03;5072610;28;20174;-76
2021/10/23 07:51:08;;;;;;;0.90;0.87;;;;;;;6.29;100.00;101493.03;5090475;28;20685;-76
2021/10/23 07:53:35;;;;;;;2.97;1.43;;;;;;;6.47;100.00;101503.50;5090804;28;20184;-76
2021/10/23 07:56:00;;;;;;;4.60;1.80;;;;;;;6.59;100.00;101503.34;5090505;28;20184;-76
2021/10/23 07:58:26;;;;;;;0.57;0.47;;;;;;;6.50;100.00;101503.81;5090685;28;20177;-75
2021/10/23 08:00:51;;;;;;;0.17;0.17;;;;;;;6.52;100.00;101501.66;5090535;28;20233;-76
2021/10/23 08:03:17;;;;;;;0.20;0.20;;;;;;;6.54;100.00;101499.50;5090534;28;20651;-76
2021/10/23 08:05:42;;;;;;;2.93;1.17;;;;;;;6.54;100.00;101507.66;5090282;28;20189;-76
2021/10/23 08:08:08;;;;;;;2.47;1.17;;;;;;;6.55;100.00;101513.91;5090715;28;20178;-75
2021/10/23 08:10:35;;;;;;;2.27;0.20;;;;;;;6.59;100.00;101523.16;5090351;28;20182;-75
2021/10/23 08:13:04;;;;;;;5.50;0.40;;;;;;;6.65;100.00;101516.69;5072422;28;20178;-75
2021/10/23 08:15:31;;;;;;;1.53;0.43;;;;;;;6.71;100.00;101525.72;5090308;28;20188;-77
2021/10/23 08:17:58;;;;;;;2.00;1.90;;;;;;;6.75;100.00;101532.25;5090428;28;20172;-75
2021/10/23 08:20:23;;;;;;;4.50;0.60;;;;;;;6.78;100.00;101531.72;5086896;28;20293;-77
2021/10/23 08:22:48;;;;;;;0.53;0.30;;;;;;;6.83;100.00;101542.66;5087549;28;20654;-76
2021/10/23 08:25:14;;;;;;;2.03;0.97;;;;;;;6.91;100.00;101547.59;5077780;28;20189;-77
2021/10/23 08:27:42;;;;;;;1.00;0.93;;;;;;;6.98;100.00;101552.81;5085070;28;20176;-78
2021/10/23 08:30:11;;;;;;;1.70;0.80;;;;;;;7.06;100.00;101555.03;5089828;28;20287;-78
2021/10/23 08:32:38;;;;;;;4.40;2.97;;;;;;;7.12;100.00;101565.72;5088440;28;20633;-77
2021/10/23 08:35:04;;;;;;;3.13;0.50;;;;;;;7.22;100.00;101566.84;5089946;28;20174;-78
2021/10/23 08:37:30;;;;;;;2.30;0.67;;;;;;;7.29;100.00;101568.28;5088332;28;20201;-78
2021/10/23 08:39:55;;;;;;;4.33;1.47;;;;;;;7.38;100.00;101574.88;5090031;28;20197;-78
2021/10/23 08:42:21;;;;;;;4.73;2.40;;;;;;;7.46;100.00;101570.81;5089727;28;20897;-77
2021/10/23 08:44:46;;;;;;;0.80;0.60;;;;;;;7.56;100.00;101575.50;5079744;28;20201;-77
2021/10/23 08:47:14;;;;;;;1.37;0.60;;;;;;;7.64;100.00;101586.69;5090011;28;20174;-77
2021/10/23 08:49:40;;;;;;;4.13;0.30;;;;;;;7.75;100.00;101588.38;5072039;28;20173;-78
2021/10/23 08:52:06;;;;;;;1.23;0.90;;;;;;;7.83;100.00;101597.16;5090224;28;20170;-77
2021/10/23 08:54:33;;;;;;;0.20;0.20;;;;;;;7.89;100.00;101610.50;5089869;28;20184;-77
2021/10/23 08:57:02;;;;;;;1.77;0.07;;;;;;;7.96;99.46;101600.19;5090612;28;20262;-77
2021/10/23 08:59:28;;;;;;;2.27;1.27;;;;;;;8.04;98.40;101607.03;5071885;28;20602;-77
2021/10/23 09:01:58;;;;;;;0.83;0.33;;;;;;;8.10;97.95;101603.25;5072126;28;20184;-77
2021/10/23 09:04:30;;;;;;;0.30;0.30;;;;;;;8.12;97.09;101617.41;5071769;28;20638;-77
2021/10/23 09:07:10;;;;;;;0.87;0.70;;;;;;;8.09;97.40;101606.22;5071690;28;20185;-77
2021/10/23 09:09:52;;;;;;;0.30;0.20;;;;;;;8.13;98.86;101613.59;5090051;28;20181;-76
2021/10/23 09:12:26;;;;;;;1.33;0.90;;;;;;;8.26;98.69;101628.63;5069993;28;20350;-76
2021/10/23 09:15:12;;;;;;;13.27;0.43;;;;;;;8.33;97.63;101626.47;5073736;28;20177;-76
2021/10/23 09:17:46;;;;;;;2.80;0.40;;;;;;;8.39;98.23;101622.72;5089935;28;20230;-76
2021/10/23 09:20:13;;;;;;;0.90;0.73;;;;;;;8.38;98.38;101626.50;5075201;28;20197;-77
2021/10/23 09:22:43;;;;;;;0.90;0.90;;;;;;;8.40;99.13;101624.34;5089969;28;20209;-76
2021/10/23 09:25:29;;;;;;;0.97;0.83;;;;;;;8.43;99.59;101631.16;5075142;28;20519;-77
2021/10/23 09:28:12;;;;;;;1.83;1.23;;;;;;;8.46;99.50;101627.91;5089108;28;20657;-77
2021/10/23 09:30:41;;;;;;;2.97;0.70;;;;;;;8.44;98.62;101632.81;5090133;28;20174;-76
2021/10/23 09:33:08;;;;;;;1.03;0.63;;;;;;;8.43;99.02;101658.41;5091923;28;20166;-78
2021/10/23 09:35:42;;;;;;;0.73;0.60;;;;;;;8.53;98.17;101655.69;5092576;28;20185;-78
2021/10/23 09:38:08;;;;;;;0.00;0.00;;;;;;;8.69;97.21;101662.03;5093570;28;20166;-79
2021/10/23 09:40:34;;;;;;;4.90;0.63;;;;;;;8.77;95.64;101659.56;5093251;28;20201;-77
2021/10/23 09:43:21;;;;;;;21.13;1.07;;;;;;;8.68;94.58;101666.66;5092333;28;20306;-77
2021/10/23 09:45:59;;;;;;;1.67;1.57;;;;;;;8.60;95.22;101662.53;5093254;28;20637;-77
2021/10/23 09:48:50;;;;;;;8.90;0.97;;;;;;;8.65;96.14;101672.63;5093233;28;20524;-77
2021/10/23 09:51:29;;;;;;;0.40;0.40;;;;;;;8.71;95.93;101674.28;5091748;28;20178;-78
2021/10/23 09:54:00;;;;;;;0.30;0.30;;;;;;;8.65;94.86;101669.88;5091600;28;20706;-78
2021/10/23 09:56:30;;;;;;;0.70;0.40;;;;;;;8.72;96.16;101675.09;5089618;28;20272;-78
2021/10/23 09:59:02;;;;;;;0.30;0.30;;;;;;;8.70;96.37;101678.09;5076413;28;20673;-77
2021/10/23 10:01:33;;;;;;;0.23;0.23;;;;;;;8.71;95.97;101681.63;5093420;28;20158;-76
2021/10/23 10:04:15;;;;;;;0.30;0.30;;;;;;;8.70;95.34;101685.47;5054960;28;20658;-77
2021/10/23 10:06:49;;;;;;;0.07;0.07;;;;;;;8.72;95.54;101684.09;5073027;28;20209;-76
2021/10/23 10:09:19;;;;;;;1.10;0.80;;;;;;;8.73;95.55;101676.75;5072995;28;20172;-76
2021/10/23 10:11:48;;;;;;;2.93;0.80;;;;;;;8.89;95.88;101679.22;5054892;28;20661;-77
2021/10/23 10:14:20;;;;;;;1.03;0.63;;;;;;;8.99;95.59;101680.34;5072840;28;20634;-77
2021/10/23 10:16:49;;;;;;;0.47;0.30;;;;;;;9.02;94.61;101687.97;5072936;28;20162;-76
2021/10/23 10:19:19;;;;;;;0.67;0.10;;;;;;;9.02;94.47;101683.34;5054657;28;20198;-78
2021/10/23 10:21:45;;;;;;;1.93;1.00;;;;;;;9.18;96.11;101673.25;5061072;28;20177;-78
2021/10/23 10:24:14;;;;;;;4.53;0.77;;;;;;;9.28;94.36;101694.28;5074663;28;20508;-78
2021/10/23 10:26:40;;;;;;;1.97;1.20;;;;;;;9.28;93.86;101695.09;5092974;28;20174;-78
2021/10/23 10:31:58;;;;;;;3.33;1.27;;;;;;;9.44;91.62;101696.72;5092548;28;20753;-78
2021/10/23 10:40:31;;;;;;;0.70;0.53;;;;;;;9.45;90.17;101695.66;5092216;28;20284;-77
2021/10/23 10:43:01;;;;;;;2.37;0.67;;;;;;;9.61;90.28;101701.91;5091776;28;20178;-78
2021/10/23 10:45:53;;;;;;;16.33;0.50;;;;;;;9.71;89.91;101701.09;5091941;28;20667;-78
2021/10/23 10:48:25;;;;;;;4.83;0.20;;;;;;;9.86;89.02;101701.06;5092093;28;20166;-78
2021/10/23 10:50:50;;;;;;;5.87;0.73;;;;;;;9.87;88.05;101697.25;5091907;28;20519;-78
2021/10/23 10:53:32;;;;;;;14.63;2.30;;;;;;;9.78;86.95;101696.97;5091834;28;20177;-78
2021/10/23 10:56:10;;;;;;;3.00;1.83;;;;;;;9.71;86.78;101684.72;5091747;28;20197;-77
2021/10/23 10:58:41;;;;;;;1.40;0.77;;;;;;;9.93;88.52;101690.66;5073503;28;20170;-78
2021/10/23 11:01:13;;;;;;;0.60;0.43;;;;;;;9.97;86.94;101697.19;5092007;28;20523;-78
2021/10/23 11:03:38;;;;;;;0.97;0.60;;;;;;;10.21;87.38;101694.72;5091503;28;20664;-78
2021/10/23 11:09:12;;;;;;;0.43;0.33;;;;;;;10.46;84.70;101695.72;5091570;28;20363;-77
2021/10/23 11:11:43;;;;;;;6.13;1.27;;;;;;;10.35;83.18;101695.78;5091502;28;20174;-78
2021/10/23 11:14:10;;;;;;;1.50;1.40;;;;;;;10.50;83.18;101702.25;5073061;28;20178;-78
2021/10/23 11:16:37;;;;;;;0.27;0.27;;;;;;;10.58;81.67;101699.78;5091830;28;20212;-78
2021/10/23 11:19:04;;;;;;;0.53;0.33;;;;;;;10.55;80.38;101699.50;5091260;28;20193;-78
2021/10/23 11:21:31;;;;;;;0.87;0.20;;;;;;;10.68;80.98;101698.91;5091309;28;20174;-77
2021/10/23 11:23:57;;;;;;;0.40;0.40;;;;;;;10.54;81.12;101690.50;5072906;28;20269;-78
2021/10/23 11:26:22;;;;;;;0.20;0.20;;;;;;;10.51;78.72;101692.97;5091342;28;20277;-78
2021/10/23 11:28:48;;;;;;;2.50;0.47;;;;;;;10.61;81.43;101699.22;5073150;28;20261;-77
2021/10/23 11:31:21;;;;;;;0.63;0.23;;;;;;;10.82;81.40;101704.56;5073025;28;20170;-78
2021/10/23 11:33:46;;;;;;;0.00;0.00;;;;;;;10.79;79.01;101689.53;5090801;28;20251;-78
2021/10/23 11:36:19;;;;;;;2.53;0.30;;;;;;;10.58;78.23;101698.97;5091055;28;20213;-78
2021/10/23 11:38:49;;;;;;;1.13;0.37;;;;;;;10.50;78.46;101699.53;5090964;28;20949;-77